createdAt,value
2018-09-12T00:02:39.673Z,91.6
2018-09-12T00:07:42.104Z,92.3
2018-09-12T00:12:44.537Z,93.4
2018-09-12T00:17:47.301Z,94.5
2018-09-12T00:22:49.463Z,94.9
2018-09-12T00:27:51.919Z,98
2018-09-12T00:32:54.380Z,97.5
2018-09-12T00:37:56.842Z,95.9
2018-09-12T00:42:59.561Z,95.3
2018-09-12T00:48:01.759Z,93.8
2018-09-12T00:53:04.261Z,93.9
2018-09-12T00:58:06.691Z,95.7
2018-09-12T01:03:09.101Z,95.3
2018-09-12T01:08:11.568Z,96.5
2018-09-12T01:13:14.019Z,97
2018-09-12T01:18:16.650Z,99.5
2018-09-12T01:23:19.081Z,99.4
2018-09-12T01:28:21.435Z,99.9
2018-09-12T01:33:23.881Z,99.6
2018-09-12T01:38:26.344Z,99.9
2018-09-12T01:43:28.788Z,99.9
2018-09-12T01:48:31.431Z,99.9
2018-09-12T01:53:33.703Z,99.9
2018-09-12T01:58:36.224Z,99.9
2018-09-12T02:03:38.624Z,99.9
2018-09-12T02:08:41.079Z,99.9
2018-09-12T02:18:46.038Z,99.9
2018-09-12T02:23:48.438Z,99.9
2018-09-12T02:28:51.015Z,99.9
2018-09-12T02:33:53.382Z,99.9
2018-09-12T02:38:55.874Z,99.9
2018-09-12T02:43:58.269Z,99.9
2018-09-12T02:49:00.855Z,99.9
2018-09-12T02:54:03.214Z,99.9
2018-09-12T02:59:05.741Z,99.9
2018-09-12T03:04:08.226Z,99.9
2018-09-12T03:09:10.690Z,99.9
2018-09-12T03:14:13.078Z,99.9
2018-09-12T03:19:15.544Z,99.9
2018-09-12T03:24:18.011Z,99.9
2018-09-12T03:29:20.428Z,99.9
2018-09-12T03:34:22.848Z,99.9
2018-09-12T03:39:25.342Z,99.9
2018-09-12T03:44:27.932Z,99.9
2018-09-12T03:49:30.221Z,99.9
2018-09-12T03:54:32.673Z,99.9
2018-09-12T03:59:35.255Z,99.9
2018-09-12T04:04:37.608Z,99.9
2018-09-12T04:09:40.091Z,99.9
2018-09-12T04:14:42.527Z,99.9
2018-09-12T04:19:45.175Z,99.9
2018-09-12T04:24:47.435Z,99.9
2018-09-12T04:29:49.945Z,99.9
2018-09-12T04:34:52.359Z,99.9
2018-09-12T04:39:54.891Z,99.9
2018-09-12T04:44:57.326Z,99.9
2018-09-12T04:49:59.741Z,99.9
2018-09-12T04:55:02.246Z,99.9
2018-09-12T05:00:04.770Z,99.9
2018-09-12T05:05:07.159Z,99.9
2018-09-12T05:10:09.692Z,99.9
2018-09-12T05:15:12.152Z,99.9
2018-09-12T05:20:14.474Z,75.2
2018-09-12T05:25:16.921Z,25.4
2018-09-12T05:30:19.393Z,5.5
2018-09-12T05:35:22.019Z,1
2018-09-12T05:40:24.426Z,1
2018-09-12T05:45:26.994Z,1
2018-09-12T05:50:29.358Z,1
2018-09-12T05:55:31.723Z,1
2018-09-12T06:00:34.262Z,1
2018-09-12T06:05:36.608Z,1
2018-09-12T06:10:39.166Z,1
2018-09-12T06:15:41.526Z,1
2018-09-12T06:20:44.256Z,1
2018-09-12T06:25:46.438Z,1
2018-09-12T06:30:48.937Z,1
2018-09-12T06:35:51.522Z,1
2018-09-12T06:40:53.961Z,1
2018-09-12T06:45:56.285Z,1
2018-09-12T06:50:58.856Z,1
2018-09-12T06:56:01.250Z,1
2018-09-12T07:01:03.816Z,1
2018-09-12T07:06:06.162Z,1
2018-09-12T07:11:08.859Z,1
2018-09-12T07:16:11.055Z,1
2018-09-12T07:21:13.556Z,1
2018-09-12T07:26:15.950Z,1
2018-09-12T07:31:18.409Z,1
2018-09-12T07:36:20.875Z,1
2018-09-12T07:41:23.371Z,1
2018-09-12T07:46:25.933Z,1
2018-09-12T07:51:28.299Z,1
2018-09-12T07:56:30.791Z,1
2018-09-12T08:01:33.373Z,1
2018-09-12T08:06:35.927Z,1
2018-09-12T08:11:38.196Z,1
2018-09-12T08:16:40.563Z,1
2018-09-12T08:21:43.024Z,1
2018-09-12T08:26:45.503Z,1
2018-09-12T08:31:47.945Z,1
2018-09-12T08:36:50.431Z,1
2018-09-12T08:41:52.954Z,1
2018-09-12T08:46:55.514Z,1
2018-09-12T08:51:58.010Z,1
2018-09-12T08:57:00.481Z,1
2018-09-12T09:02:02.857Z,1
2018-09-12T09:07:05.155Z,1
2018-09-12T09:12:07.766Z,1
2018-09-12T09:17:10.529Z,1
2018-09-12T09:22:12.572Z,1
2018-09-12T09:27:15.077Z,1
2018-09-12T09:32:17.817Z,1
2018-09-12T09:37:20.112Z,1
2018-09-12T09:42:22.787Z,1
2018-09-12T09:52:27.301Z,1
2018-09-12T09:57:29.765Z,1
2018-09-12T10:02:32.239Z,1
2018-09-12T10:07:34.927Z,1
2018-09-12T10:12:37.218Z,1
2018-09-12T10:17:39.590Z,1
2018-09-12T10:22:42.131Z,1
2018-09-12T10:27:44.637Z,1
2018-09-12T10:32:46.967Z,1
2018-09-12T10:37:49.426Z,1
2018-09-12T10:42:51.911Z,1
2018-09-12T10:47:54.365Z,1
2018-09-12T10:52:56.882Z,1
2018-09-12T10:57:59.260Z,1
2018-09-12T11:03:01.735Z,1
2018-09-12T11:08:04.396Z,1
2018-09-12T11:13:06.653Z,1
2018-09-12T11:18:09.485Z,1
2018-09-12T11:23:16.574Z,1
2018-09-12T11:28:14.068Z,1
2018-09-12T11:33:16.515Z,1
2018-09-12T11:38:18.963Z,1
2018-09-12T11:43:21.838Z,1
2018-09-12T11:48:23.861Z,1
2018-09-12T11:53:26.339Z,1
2018-09-12T11:58:28.987Z,1
2018-09-12T12:03:31.210Z,1
2018-09-12T12:08:33.688Z,1
2018-09-12T12:13:36.336Z,1
2018-09-12T12:18:38.612Z,1
2018-09-12T12:23:41.142Z,1
2018-09-12T12:28:43.623Z,1
2018-09-12T12:33:46.290Z,1
2018-09-12T12:38:48.477Z,1
2018-09-12T12:43:51.073Z,1
2018-09-12T12:48:53.807Z,1
2018-09-12T12:53:55.938Z,1
2018-09-12T12:58:58.431Z,1
2018-09-12T13:04:00.770Z,1
2018-09-12T13:09:03.194Z,1
2018-09-12T13:14:10.660Z,1
2018-09-12T13:19:08.866Z,1
2018-09-12T13:24:10.638Z,1
2018-09-12T13:29:13.036Z,1
2018-09-12T13:34:15.596Z,1
2018-09-12T13:39:18.059Z,1
2018-09-12T13:44:20.546Z,1
2018-09-12T13:49:22.921Z,1
